sensor_id;sensor_type;location;lat;lon;timestamp;temperature;humidity
1129;DHT22;553;51.038;7.216;2023-05-29T00:01:32;15.40;96.80
1129;DHT22;553;51.038;7.216;2023-05-29T00:03:59;15.40;97.00
1129;DHT22;553;51.038;7.216;2023-05-29T00:06:26;15.30;97.20
1129;DHT22;553;51.038;7.216;2023-05-29T00:08:53;15.30;97.20
1129;DHT22;553;51.038;7.216;2023-05-29T00:11:19;15.30;97.40
1129;DHT22;553;51.038;7.216;2023-05-29T00:13:46;15.30;97.40
1129;DHT22;553;51.038;7.216;2023-05-29T00:16:13;15.30;97.50
1129;DHT22;553;51.038;7.216;2023-05-29T00:18:40;15.20;97.60
1129;DHT22;553;51.038;7.216;2023-05-29T00:21:12;15.20;97.60
1129;DHT22;553;51.038;7.216;2023-05-29T00:23:40;15.20;97.70
1129;DHT22;553;51.038;7.216;2023-05-29T00:26:06;15.10;97.90
1129;DHT22;553;51.038;7.216;2023-05-29T00:28:35;15.10;98.00
1129;DHT22;553;51.038;7.216;2023-05-29T00:31:02;15.00;98.10
1129;DHT22;553;51.038;7.216;2023-05-29T00:33:29;15.00;98.20
1129;DHT22;553;51.038;7.216;2023-05-29T00:35:57;14.90;98.30
1129;DHT22;553;51.038;7.216;2023-05-29T00:38:23;14.90;98.50
1129;DHT22;553;51.038;7.216;2023-05-29T00:40:50;14.80;98.50
1129;DHT22;553;51.038;7.216;2023-05-29T00:43:17;14.80;98.60
1129;DHT22;553;51.038;7.216;2023-05-29T00:45:43;14.70;98.90
1129;DHT22;553;51.038;7.216;2023-05-29T00:48:11;14.70;98.90
1129;DHT22;553;51.038;7.216;2023-05-29T00:50:37;14.60;98.90
1129;DHT22;553;51.038;7.216;2023-05-29T00:53:05;14.60;98.90
1129;DHT22;553;51.038;7.216;2023-05-29T00:55:34;14.60;98.90
1129;DHT22;553;51.038;7.216;2023-05-29T00:58:01;14.60;99.00
1129;DHT22;553;51.038;7.216;2023-05-29T01:00:28;14.50;99.10
1129;DHT22;553;51.038;7.216;2023-05-29T01:02:57;14.50;99.00
1129;DHT22;553;51.038;7.216;2023-05-29T01:05:24;14.40;99.20
1129;DHT22;553;51.038;7.216;2023-05-29T01:07:51;14.40;99.40
1129;DHT22;553;51.038;7.216;2023-05-29T01:10:18;14.30;99.50
1129;DHT22;553;51.038;7.216;2023-05-29T01:15:36;14.20;99.40
1129;DHT22;553;51.038;7.216;2023-05-29T01:21:06;14.20;99.40
1129;DHT22;553;51.038;7.216;2023-05-29T01:29:23;14.00;99.40
1129;DHT22;553;51.038;7.216;2023-05-29T01:31:51;13.90;99.30
1129;DHT22;553;51.038;7.216;2023-05-29T01:34:20;13.90;99.50
1129;DHT22;553;51.038;7.216;2023-05-29T01:36:47;13.90;99.20
1129;DHT22;553;51.038;7.216;2023-05-29T01:39:14;13.80;99.10
1129;DHT22;553;51.038;7.216;2023-05-29T01:41:43;13.80;99.10
1129;DHT22;553;51.038;7.216;2023-05-29T01:44:10;13.70;99.10
1129;DHT22;553;51.038;7.216;2023-05-29T01:46:40;13.70;99.00
1129;DHT22;553;51.038;7.216;2023-05-29T01:49:08;13.70;99.00
1129;DHT22;553;51.038;7.216;2023-05-29T01:51:35;13.70;98.90
1129;DHT22;553;51.038;7.216;2023-05-29T01:54:02;13.60;99.00
1129;DHT22;553;51.038;7.216;2023-05-29T01:56:30;13.50;99.10
1129;DHT22;553;51.038;7.216;2023-05-29T01:58:58;13.50;99.10
1129;DHT22;553;51.038;7.216;2023-05-29T02:01:26;13.40;99.20
1129;DHT22;553;51.038;7.216;2023-05-29T02:03:53;13.40;99.20
1129;DHT22;553;51.038;7.216;2023-05-29T02:06:20;13.40;99.30
1129;DHT22;553;51.038;7.216;2023-05-29T02:08:47;13.40;99.30
1129;DHT22;553;51.038;7.216;2023-05-29T02:11:14;13.30;99.50
1129;DHT22;553;51.038;7.216;2023-05-29T02:13:41;13.30;99.70
1129;DHT22;553;51.038;7.216;2023-05-29T02:16:08;13.20;99.80
1129;DHT22;553;51.038;7.216;2023-05-29T02:18:35;13.10;99.90
1129;DHT22;553;51.038;7.216;2023-05-29T02:21:02;13.00;99.90
1129;DHT22;553;51.038;7.216;2023-05-29T02:23:29;13.00;99.90
1129;DHT22;553;51.038;7.216;2023-05-29T02:25:56;12.90;99.90
1129;DHT22;553;51.038;7.216;2023-05-29T02:28:23;13.00;99.90
1129;DHT22;553;51.038;7.216;2023-05-29T02:30:50;12.90;99.90
1129;DHT22;553;51.038;7.216;2023-05-29T02:33:17;12.90;99.90
1129;DHT22;553;51.038;7.216;2023-05-29T02:35:44;12.80;99.90
1129;DHT22;553;51.038;7.216;2023-05-29T02:38:11;12.70;99.90
1129;DHT22;553;51.038;7.216;2023-05-29T02:40:40;12.70;99.90
1129;DHT22;553;51.038;7.216;2023-05-29T02:43:08;12.60;99.90
1129;DHT22;553;51.038;7.216;2023-05-29T02:45:35;12.60;99.90
1129;DHT22;553;51.038;7.216;2023-05-29T02:48:02;12.50;99.90
1129;DHT22;553;51.038;7.216;2023-05-29T02:50:30;12.50;99.90
1129;DHT22;553;51.038;7.216;2023-05-29T02:52:57;12.40;99.90
1129;DHT22;553;51.038;7.216;2023-05-29T02:55:23;12.30;99.90
1129;DHT22;553;51.038;7.216;2023-05-29T02:57:50;12.30;99.90
1129;DHT22;553;51.038;7.216;2023-05-29T03:00:19;12.20;99.90
1129;DHT22;553;51.038;7.216;2023-05-29T03:02:47;12.20;99.90
1129;DHT22;553;51.038;7.216;2023-05-29T03:05:14;12.10;99.90
1129;DHT22;553;51.038;7.216;2023-05-29T03:07:41;12.10;99.90
1129;DHT22;553;51.038;7.216;2023-05-29T03:10:08;12.00;99.90
1129;DHT22;553;51.038;7.216;2023-05-29T03:12:37;11.90;99.90
1129;DHT22;553;51.038;7.216;2023-05-29T03:15:05;11.90;99.90
1129;DHT22;553;51.038;7.216;2023-05-29T03:17:32;11.80;99.90
1129;DHT22;553;51.038;7.216;2023-05-29T03:19:59;11.80;99.90
1129;DHT22;553;51.038;7.216;2023-05-29T03:22:26;11.70;99.90
1129;DHT22;553;51.038;7.216;2023-05-29T03:24:52;11.70;99.90
1129;DHT22;553;51.038;7.216;2023-05-29T03:27:19;11.60;99.90
1129;DHT22;553;51.038;7.216;2023-05-29T03:29:54;11.60;99.90
1129;DHT22;553;51.038;7.216;2023-05-29T03:32:22;11.50;99.90
1129;DHT22;553;51.038;7.216;2023-05-29T03:34:49;11.50;99.90
1129;DHT22;553;51.038;7.216;2023-05-29T03:37:16;11.50;99.90
1129;DHT22;553;51.038;7.216;2023-05-29T03:39:43;11.50;99.90
1129;DHT22;553;51.038;7.216;2023-05-29T03:42:10;11.50;99.90
1129;DHT22;553;51.038;7.216;2023-05-29T03:44:37;11.40;99.90
1129;DHT22;553;51.038;7.216;2023-05-29T03:47:05;11.50;99.90
1129;DHT22;553;51.038;7.216;2023-05-29T03:49:34;11.40;99.90
1129;DHT22;553;51.038;7.216;2023-05-29T03:52:02;11.40;99.90
1129;DHT22;553;51.038;7.216;2023-05-29T03:54:28;11.40;99.90
1129;DHT22;553;51.038;7.216;2023-05-29T03:56:55;11.40;99.90
1129;DHT22;553;51.038;7.216;2023-05-29T03:59:24;11.40;99.90
1129;DHT22;553;51.038;7.216;2023-05-29T04:01:51;11.40;99.90
1129;DHT22;553;51.038;7.216;2023-05-29T04:04:19;11.40;99.90
1129;DHT22;553;51.038;7.216;2023-05-29T04:06:46;11.30;99.90
1129;DHT22;553;51.038;7.216;2023-05-29T04:09:13;11.40;99.90
1129;DHT22;553;51.038;7.216;2023-05-29T04:11:40;11.40;99.90
1129;DHT22;553;51.038;7.216;2023-05-29T04:14:08;11.40;99.90
1129;DHT22;553;51.038;7.216;2023-05-29T04:16:34;11.40;99.90
1129;DHT22;553;51.038;7.216;2023-05-29T04:19:01;11.40;99.90
1129;DHT22;553;51.038;7.216;2023-05-29T04:21:31;11.40;99.90
1129;DHT22;553;51.038;7.216;2023-05-29T04:24:00;11.40;99.90
1129;DHT22;553;51.038;7.216;2023-05-29T04:26:27;11.40;99.90
1129;DHT22;553;51.038;7.216;2023-05-29T04:28:54;11.40;99.90
1129;DHT22;553;51.038;7.216;2023-05-29T04:31:25;11.40;99.90
1129;DHT22;553;51.038;7.216;2023-05-29T04:33:53;11.40;99.90
1129;DHT22;553;51.038;7.216;2023-05-29T04:36:23;11.40;99.90
1129;DHT22;553;51.038;7.216;2023-05-29T04:39:01;11.60;99.90
1129;DHT22;553;51.038;7.216;2023-05-29T04:41:27;11.60;99.90
1129;DHT22;553;51.038;7.216;2023-05-29T04:43:59;11.60;99.90
1129;DHT22;553;51.038;7.216;2023-05-29T04:46:32;11.60;99.90
1129;DHT22;553;51.038;7.216;2023-05-29T04:49:01;11.60;99.90
1129;DHT22;553;51.038;7.216;2023-05-29T04:51:29;11.70;99.90
1129;DHT22;553;51.038;7.216;2023-05-29T04:53:56;11.70;99.90
1129;DHT22;553;51.038;7.216;2023-05-29T04:56:23;11.70;99.90
1129;DHT22;553;51.038;7.216;2023-05-29T04:58:49;11.70;99.90
1129;DHT22;553;51.038;7.216;2023-05-29T05:01:17;11.70;99.90
1129;DHT22;553;51.038;7.216;2023-05-29T05:03:44;11.70;99.90
1129;DHT22;553;51.038;7.216;2023-05-29T05:06:12;11.70;99.90
1129;DHT22;553;51.038;7.216;2023-05-29T05:08:39;11.80;99.90
1129;DHT22;553;51.038;7.216;2023-05-29T05:11:06;11.90;99.90
1129;DHT22;553;51.038;7.216;2023-05-29T05:13:33;12.00;99.90
1129;DHT22;553;51.038;7.216;2023-05-29T05:16:00;12.00;99.90
1129;DHT22;553;51.038;7.216;2023-05-29T05:18:29;12.10;99.90
1129;DHT22;553;51.038;7.216;2023-05-29T05:21:02;12.20;99.90
1129;DHT22;553;51.038;7.216;2023-05-29T05:23:32;12.40;99.90
1129;DHT22;553;51.038;7.216;2023-05-29T05:26:14;12.60;99.90
1129;DHT22;553;51.038;7.216;2023-05-29T05:28:42;12.90;99.90
1129;DHT22;553;51.038;7.216;2023-05-29T05:31:10;13.10;99.90
1129;DHT22;553;51.038;7.216;2023-05-29T05:33:37;13.20;99.90
1129;DHT22;553;51.038;7.216;2023-05-29T05:36:04;13.40;99.90
1129;DHT22;553;51.038;7.216;2023-05-29T05:38:31;13.60;99.90
1129;DHT22;553;51.038;7.216;2023-05-29T05:40:59;13.90;99.90
1129;DHT22;553;51.038;7.216;2023-05-29T05:43:30;14.20;99.60
1129;DHT22;553;51.038;7.216;2023-05-29T05:46:10;14.60;98.40
1129;DHT22;553;51.038;7.216;2023-05-29T05:48:37;14.80;97.40
1129;DHT22;553;51.038;7.216;2023-05-29T05:51:03;14.80;96.30
1129;DHT22;553;51.038;7.216;2023-05-29T05:53:31;14.90;95.70
1129;DHT22;553;51.038;7.216;2023-05-29T05:55:58;14.90;95.60
1129;DHT22;553;51.038;7.216;2023-05-29T05:58:25;14.80;95.50
1129;DHT22;553;51.038;7.216;2023-05-29T06:00:52;14.90;95.50
1129;DHT22;553;51.038;7.216;2023-05-29T06:03:19;14.90;94.70
1129;DHT22;553;51.038;7.216;2023-05-29T06:05:55;15.00;94.60
1129;DHT22;553;51.038;7.216;2023-05-29T06:08:23;15.30;94.40
1129;DHT22;553;51.038;7.216;2023-05-29T06:10:51;15.50;93.40
1129;DHT22;553;51.038;7.216;2023-05-29T06:13:18;15.70;92.90
1129;DHT22;553;51.038;7.216;2023-05-29T06:15:49;15.80;92.40
1129;DHT22;553;51.038;7.216;2023-05-29T06:18:16;16.10;91.70
1129;DHT22;553;51.038;7.216;2023-05-29T06:20:43;16.10;91.10
1129;DHT22;553;51.038;7.216;2023-05-29T06:23:10;16.20;91.30
1129;DHT22;553;51.038;7.216;2023-05-29T06:25:37;16.30;90.80
1129;DHT22;553;51.038;7.216;2023-05-29T06:28:05;16.50;90.30
1129;DHT22;553;51.038;7.216;2023-05-29T06:30:34;16.80;89.90
1129;DHT22;553;51.038;7.216;2023-05-29T06:33:05;17.10;88.80
1129;DHT22;553;51.038;7.216;2023-05-29T06:35:34;17.20;88.20
1129;DHT22;553;51.038;7.216;2023-05-29T06:38:01;17.10;87.90
1129;DHT22;553;51.038;7.216;2023-05-29T06:40:27;17.10;88.30
1129;DHT22;553;51.038;7.216;2023-05-29T06:42:54;17.10;87.70
1129;DHT22;553;51.038;7.216;2023-05-29T06:45:35;16.70;88.00
1129;DHT22;553;51.038;7.216;2023-05-29T06:48:02;16.40;88.90
1129;DHT22;553;51.038;7.216;2023-05-29T06:50:28;16.40;89.80
1129;DHT22;553;51.038;7.216;2023-05-29T06:53:02;16.40;89.20
1129;DHT22;553;51.038;7.216;2023-05-29T06:55:46;16.50;89.50
1129;DHT22;553;51.038;7.216;2023-05-29T06:58:14;16.50;89.10
1129;DHT22;553;51.038;7.216;2023-05-29T07:00:41;16.70;88.90
1129;DHT22;553;51.038;7.216;2023-05-29T07:03:30;16.90;88.40
1129;DHT22;553;51.038;7.216;2023-05-29T07:05:57;17.20;87.90
1129;DHT22;553;51.038;7.216;2023-05-29T07:08:25;17.30;87.50
1129;DHT22;553;51.038;7.216;2023-05-29T07:10:52;17.30;87.40
1129;DHT22;553;51.038;7.216;2023-05-29T07:13:20;17.40;87.00
1129;DHT22;553;51.038;7.216;2023-05-29T07:15:48;17.60;87.10
1129;DHT22;553;51.038;7.216;2023-05-29T07:18:16;17.90;86.10
1129;DHT22;553;51.038;7.216;2023-05-29T07:20:43;18.00;85.90
1129;DHT22;553;51.038;7.216;2023-05-29T07:23:13;17.90;85.80
1129;DHT22;553;51.038;7.216;2023-05-29T07:25:40;17.80;85.90
1129;DHT22;553;51.038;7.216;2023-05-29T07:28:06;17.90;86.10
1129;DHT22;553;51.038;7.216;2023-05-29T07:30:48;18.10;85.50
1129;DHT22;553;51.038;7.216;2023-05-29T07:33:15;18.20;85.20
1129;DHT22;553;51.038;7.216;2023-05-29T07:35:43;18.30;85.20
1129;DHT22;553;51.038;7.216;2023-05-29T07:38:10;18.40;84.90
1129;DHT22;553;51.038;7.216;2023-05-29T07:40:38;18.60;84.50
1129;DHT22;553;51.038;7.216;2023-05-29T07:43:18;19.00;84.40
1129;DHT22;553;51.038;7.216;2023-05-29T07:45:54;19.40;82.90
1129;DHT22;553;51.038;7.216;2023-05-29T07:48:22;19.60;82.90
1129;DHT22;553;51.038;7.216;2023-05-29T07:50:50;19.80;81.90
1129;DHT22;553;51.038;7.216;2023-05-29T07:53:18;20.00;82.00
1129;DHT22;553;51.038;7.216;2023-05-29T07:55:46;20.30;80.70
1129;DHT22;553;51.038;7.216;2023-05-29T07:58:13;20.30;80.00
1129;DHT22;553;51.038;7.216;2023-05-29T08:00:40;20.50;80.30
1129;DHT22;553;51.038;7.216;2023-05-29T08:03:08;20.60;79.50
1129;DHT22;553;51.038;7.216;2023-05-29T08:05:55;20.80;80.00
1129;DHT22;553;51.038;7.216;2023-05-29T08:08:23;20.90;78.80
1129;DHT22;553;51.038;7.216;2023-05-29T08:10:50;21.10;78.30
1129;DHT22;553;51.038;7.216;2023-05-29T08:13:18;21.10;77.90
1129;DHT22;553;51.038;7.216;2023-05-29T08:15:45;21.00;77.90
1129;DHT22;553;51.038;7.216;2023-05-29T08:18:12;21.00;78.60
1129;DHT22;553;51.038;7.216;2023-05-29T08:20:39;21.00;77.80
1129;DHT22;553;51.038;7.216;2023-05-29T08:23:06;20.90;78.20
1129;DHT22;553;51.038;7.216;2023-05-29T08:25:33;20.90;78.30
1129;DHT22;553;51.038;7.216;2023-05-29T08:28:00;21.00;78.10
1129;DHT22;553;51.038;7.216;2023-05-29T08:30:27;21.10;78.50
1129;DHT22;553;51.038;7.216;2023-05-29T08:32:53;21.20;77.90
1129;DHT22;553;51.038;7.216;2023-05-29T08:35:20;21.20;78.30
1129;DHT22;553;51.038;7.216;2023-05-29T08:37:47;21.30;77.60
1129;DHT22;553;51.038;7.216;2023-05-29T08:40:13;21.20;77.90
1129;DHT22;553;51.038;7.216;2023-05-29T08:42:46;21.30;78.50
1129;DHT22;553;51.038;7.216;2023-05-29T08:45:14;21.20;77.60
1129;DHT22;553;51.038;7.216;2023-05-29T08:47:42;21.40;78.40
1129;DHT22;553;51.038;7.216;2023-05-29T08:50:13;21.40;77.60
1129;DHT22;553;51.038;7.216;2023-05-29T08:52:41;21.50;77.30
1129;DHT22;553;51.038;7.216;2023-05-29T08:55:08;21.70;76.90
1129;DHT22;553;51.038;7.216;2023-05-29T08:57:36;21.70;76.30
1129;DHT22;553;51.038;7.216;2023-05-29T09:00:06;21.60;77.00
1129;DHT22;553;51.038;7.216;2023-05-29T09:02:41;21.80;77.30
1129;DHT22;553;51.038;7.216;2023-05-29T09:05:10;21.90;76.40
1129;DHT22;553;51.038;7.216;2023-05-29T09:07:37;21.80;76.80
1129;DHT22;553;51.038;7.216;2023-05-29T09:10:08;21.90;76.60
1129;DHT22;553;51.038;7.216;2023-05-29T09:12:35;21.90;76.20
1129;DHT22;553;51.038;7.216;2023-05-29T09:15:06;21.80;75.80
1129;DHT22;553;51.038;7.216;2023-05-29T09:17:34;21.50;76.70
1129;DHT22;553;51.038;7.216;2023-05-29T09:20:01;21.60;77.40
1129;DHT22;553;51.038;7.216;2023-05-29T09:22:32;21.70;77.50
1129;DHT22;553;51.038;7.216;2023-05-29T09:24:58;21.70;77.20
1129;DHT22;553;51.038;7.216;2023-05-29T09:27:26;21.60;77.30
1129;DHT22;553;51.038;7.216;2023-05-29T09:29:52;21.50;77.20
1129;DHT22;553;51.038;7.216;2023-05-29T09:32:19;21.30;78.30
1129;DHT22;553;51.038;7.216;2023-05-29T09:34:46;21.50;78.10
1129;DHT22;553;51.038;7.216;2023-05-29T09:37:13;21.80;76.90
1129;DHT22;553;51.038;7.216;2023-05-29T09:42:11;21.90;77.80
1129;DHT22;553;51.038;7.216;2023-05-29T09:44:40;21.60;77.20
1129;DHT22;553;51.038;7.216;2023-05-29T09:47:07;21.50;77.60
1129;DHT22;553;51.038;7.216;2023-05-29T09:49:34;21.50;77.80
1129;DHT22;553;51.038;7.216;2023-05-29T09:52:01;21.50;77.80
1129;DHT22;553;51.038;7.216;2023-05-29T09:54:28;21.50;77.80
1129;DHT22;553;51.038;7.216;2023-05-29T09:57:00;21.50;77.50
1129;DHT22;553;51.038;7.216;2023-05-29T09:59:28;21.50;78.20
1129;DHT22;553;51.038;7.216;2023-05-29T10:02:04;21.60;78.00
1129;DHT22;553;51.038;7.216;2023-05-29T10:04:31;21.50;78.40
1129;DHT22;553;51.038;7.216;2023-05-29T10:07:08;21.50;78.30
1129;DHT22;553;51.038;7.216;2023-05-29T10:09:41;21.60;78.00
1129;DHT22;553;51.038;7.216;2023-05-29T10:12:11;21.40;78.50
1129;DHT22;553;51.038;7.216;2023-05-29T10:14:39;21.20;78.60
1129;DHT22;553;51.038;7.216;2023-05-29T10:17:07;21.20;78.50
1129;DHT22;553;51.038;7.216;2023-05-29T10:19:36;21.00;79.90
1129;DHT22;553;51.038;7.216;2023-05-29T10:22:04;21.00;79.80
1129;DHT22;553;51.038;7.216;2023-05-29T10:24:33;21.20;80.50
1129;DHT22;553;51.038;7.216;2023-05-29T10:26:59;21.40;79.60
1129;DHT22;553;51.038;7.216;2023-05-29T10:29:28;21.50;79.00
1129;DHT22;553;51.038;7.216;2023-05-29T10:35:11;21.30;78.80
1129;DHT22;553;51.038;7.216;2023-05-29T10:37:59;21.30;78.60
1129;DHT22;553;51.038;7.216;2023-05-29T10:40:29;21.10;78.60
1129;DHT22;553;51.038;7.216;2023-05-29T10:42:56;21.20;79.70
1129;DHT22;553;51.038;7.216;2023-05-29T10:50:47;21.10;79.30
1129;DHT22;553;51.038;7.216;2023-05-29T10:53:15;21.10;78.80
1129;DHT22;553;51.038;7.216;2023-05-29T10:55:44;21.10;79.30
1129;DHT22;553;51.038;7.216;2023-05-29T10:58:15;21.00;79.00
1129;DHT22;553;51.038;7.216;2023-05-29T11:00:45;21.00;79.60
1129;DHT22;553;51.038;7.216;2023-05-29T11:03:15;21.00;80.80
1129;DHT22;553;51.038;7.216;2023-05-29T11:06:04;21.20;79.50
1129;DHT22;553;51.038;7.216;2023-05-29T11:08:55;21.20;79.30
1129;DHT22;553;51.038;7.216;2023-05-29T11:11:30;21.00;80.40
1129;DHT22;553;51.038;7.216;2023-05-29T11:14:08;21.10;79.90
1129;DHT22;553;51.038;7.216;2023-05-29T11:16:35;21.20;79.80
1129;DHT22;553;51.038;7.216;2023-05-29T11:19:05;21.40;79.50
1129;DHT22;553;51.038;7.216;2023-05-29T11:21:52;21.50;78.30
1129;DHT22;553;51.038;7.216;2023-05-29T11:24:26;21.60;78.20
1129;DHT22;553;51.038;7.216;2023-05-29T11:26:55;21.50;78.20
1129;DHT22;553;51.038;7.216;2023-05-29T11:29:26;21.30;78.40
1129;DHT22;553;51.038;7.216;2023-05-29T11:32:03;21.30;79.00
1129;DHT22;553;51.038;7.216;2023-05-29T11:34:31;21.50;78.60
1129;DHT22;553;51.038;7.216;2023-05-29T11:37:00;21.40;78.60
1129;DHT22;553;51.038;7.216;2023-05-29T11:39:28;21.60;78.10
1129;DHT22;553;51.038;7.216;2023-05-29T11:41:55;21.60;77.80
1129;DHT22;553;51.038;7.216;2023-05-29T11:44:25;21.70;77.80
1129;DHT22;553;51.038;7.216;2023-05-29T11:47:06;21.50;78.40
1129;DHT22;553;51.038;7.216;2023-05-29T11:49:37;21.40;78.30
1129;DHT22;553;51.038;7.216;2023-05-29T11:52:12;21.40;79.00
1129;DHT22;553;51.038;7.216;2023-05-29T11:54:43;21.50;77.90
1129;DHT22;553;51.038;7.216;2023-05-29T11:57:22;21.40;78.70
1129;DHT22;553;51.038;7.216;2023-05-29T11:59:51;21.60;78.70
1129;DHT22;553;51.038;7.216;2023-05-29T12:02:19;21.70;78.20
1129;DHT22;553;51.038;7.216;2023-05-29T12:05:05;21.40;78.20
1129;DHT22;553;51.038;7.216;2023-05-29T12:07:36;21.40;78.50
1129;DHT22;553;51.038;7.216;2023-05-29T12:10:13;21.50;78.00
1129;DHT22;553;51.038;7.216;2023-05-29T12:12:41;21.40;78.30
1129;DHT22;553;51.038;7.216;2023-05-29T12:15:08;21.30;77.80
1129;DHT22;553;51.038;7.216;2023-05-29T12:17:36;21.20;77.50
1129;DHT22;553;51.038;7.216;2023-05-29T12:20:04;21.10;78.50
1129;DHT22;553;51.038;7.216;2023-05-29T12:22:37;21.30;77.90
1129;DHT22;553;51.038;7.216;2023-05-29T12:25:12;21.40;77.30
1129;DHT22;553;51.038;7.216;2023-05-29T12:27:40;21.50;78.30
1129;DHT22;553;51.038;7.216;2023-05-29T12:30:11;21.70;77.70
1129;DHT22;553;51.038;7.216;2023-05-29T12:32:52;21.60;77.30
1129;DHT22;553;51.038;7.216;2023-05-29T12:35:24;21.80;78.40
1129;DHT22;553;51.038;7.216;2023-05-29T12:38:00;21.80;77.00
1129;DHT22;553;51.038;7.216;2023-05-29T12:40:28;21.70;76.50
1129;DHT22;553;51.038;7.216;2023-05-29T12:42:57;21.80;76.60
1129;DHT22;553;51.038;7.216;2023-05-29T12:45:28;21.80;76.50
1129;DHT22;553;51.038;7.216;2023-05-29T12:48:00;21.80;76.90
1129;DHT22;553;51.038;7.216;2023-05-29T12:50:31;21.70;76.60
1129;DHT22;553;51.038;7.216;2023-05-29T12:53:02;21.70;77.30
1129;DHT22;553;51.038;7.216;2023-05-29T12:55:34;21.80;76.20
1129;DHT22;553;51.038;7.216;2023-05-29T12:58:07;21.80;76.90
1129;DHT22;553;51.038;7.216;2023-05-29T13:00:35;21.70;76.40
1129;DHT22;553;51.038;7.216;2023-05-29T13:03:02;21.60;76.60
1129;DHT22;553;51.038;7.216;2023-05-29T13:05:29;21.70;76.40
1129;DHT22;553;51.038;7.216;2023-05-29T13:07:56;21.70;76.50
1129;DHT22;553;51.038;7.216;2023-05-29T13:10:24;21.70;75.90
1129;DHT22;553;51.038;7.216;2023-05-29T13:12:53;21.70;75.60
1129;DHT22;553;51.038;7.216;2023-05-29T13:15:22;21.70;75.20
1129;DHT22;553;51.038;7.216;2023-05-29T13:17:50;21.70;75.20
1129;DHT22;553;51.038;7.216;2023-05-29T13:20:18;21.70;74.80
1129;DHT22;553;51.038;7.216;2023-05-29T13:22:46;21.70;74.30
1129;DHT22;553;51.038;7.216;2023-05-29T13:25:16;21.50;75.00
1129;DHT22;553;51.038;7.216;2023-05-29T13:27:45;21.40;74.90
1129;DHT22;553;51.038;7.216;2023-05-29T13:30:12;21.60;75.80
1129;DHT22;553;51.038;7.216;2023-05-29T13:32:41;21.70;75.20
1129;DHT22;553;51.038;7.216;2023-05-29T13:35:08;21.80;74.40
1129;DHT22;553;51.038;7.216;2023-05-29T13:37:38;21.70;74.40
1129;DHT22;553;51.038;7.216;2023-05-29T13:40:10;21.60;74.80
1129;DHT22;553;51.038;7.216;2023-05-29T13:42:38;21.60;75.20
1129;DHT22;553;51.038;7.216;2023-05-29T13:45:06;21.60;75.80
1129;DHT22;553;51.038;7.216;2023-05-29T13:47:34;21.50;75.40
1129;DHT22;553;51.038;7.216;2023-05-29T13:50:01;21.40;75.80
1129;DHT22;553;51.038;7.216;2023-05-29T13:52:28;21.40;75.40
1129;DHT22;553;51.038;7.216;2023-05-29T13:54:55;21.30;75.00
1129;DHT22;553;51.038;7.216;2023-05-29T13:57:21;21.20;75.70
1129;DHT22;553;51.038;7.216;2023-05-29T13:59:48;21.30;76.70
1129;DHT22;553;51.038;7.216;2023-05-29T14:02:15;21.30;76.10
1129;DHT22;553;51.038;7.216;2023-05-29T14:04:42;21.30;76.80
1129;DHT22;553;51.038;7.216;2023-05-29T14:07:09;21.30;76.30
1129;DHT22;553;51.038;7.216;2023-05-29T14:09:36;21.30;77.10
1129;DHT22;553;51.038;7.216;2023-05-29T14:12:03;21.50;76.30
1129;DHT22;553;51.038;7.216;2023-05-29T14:14:30;21.50;76.20
1129;DHT22;553;51.038;7.216;2023-05-29T14:16:56;21.50;76.00
1129;DHT22;553;51.038;7.216;2023-05-29T14:19:23;21.50;75.70
1129;DHT22;553;51.038;7.216;2023-05-29T14:21:50;21.40;75.90
1129;DHT22;553;51.038;7.216;2023-05-29T14:24:17;21.30;75.00
1129;DHT22;553;51.038;7.216;2023-05-29T14:26:45;21.10;75.70
1129;DHT22;553;51.038;7.216;2023-05-29T14:29:14;21.00;75.80
1129;DHT22;553;51.038;7.216;2023-05-29T14:31:42;21.10;76.20
1129;DHT22;553;51.038;7.216;2023-05-29T14:34:11;21.10;76.60
1129;DHT22;553;51.038;7.216;2023-05-29T14:36:39;21.00;76.50
1129;DHT22;553;51.038;7.216;2023-05-29T14:39:06;21.10;77.60
1129;DHT22;553;51.038;7.216;2023-05-29T14:41:33;21.20;76.20
1129;DHT22;553;51.038;7.216;2023-05-29T14:44:02;21.30;75.70
1129;DHT22;553;51.038;7.216;2023-05-29T14:46:29;21.30;76.20
1129;DHT22;553;51.038;7.216;2023-05-29T14:49:01;21.40;76.00
1129;DHT22;553;51.038;7.216;2023-05-29T14:51:28;21.50;76.00
1129;DHT22;553;51.038;7.216;2023-05-29T14:53:55;21.50;76.20
1129;DHT22;553;51.038;7.216;2023-05-29T14:56:22;21.60;75.90
1129;DHT22;553;51.038;7.216;2023-05-29T14:58:48;21.70;76.00
1129;DHT22;553;51.038;7.216;2023-05-29T15:01:16;21.50;75.40
1129;DHT22;553;51.038;7.216;2023-05-29T15:03:44;21.50;75.30
1129;DHT22;553;51.038;7.216;2023-05-29T15:06:11;21.30;75.40
1129;DHT22;553;51.038;7.216;2023-05-29T15:08:39;21.30;74.80
1129;DHT22;553;51.038;7.216;2023-05-29T15:11:08;21.30;75.80
1129;DHT22;553;51.038;7.216;2023-05-29T15:13:36;21.30;74.50
1129;DHT22;553;51.038;7.216;2023-05-29T15:16:02;21.20;74.50
1129;DHT22;553;51.038;7.216;2023-05-29T15:18:30;21.20;76.00
1129;DHT22;553;51.038;7.216;2023-05-29T15:20:57;21.30;75.50
1129;DHT22;553;51.038;7.216;2023-05-29T15:23:25;21.40;75.60
1129;DHT22;553;51.038;7.216;2023-05-29T15:25:52;21.30;75.40
1129;DHT22;553;51.038;7.216;2023-05-29T15:28:20;21.20;75.30
1129;DHT22;553;51.038;7.216;2023-05-29T15:30:47;21.10;75.90
1129;DHT22;553;51.038;7.216;2023-05-29T15:33:14;21.00;74.60
1129;DHT22;553;51.038;7.216;2023-05-29T15:35:40;20.80;75.40
1129;DHT22;553;51.038;7.216;2023-05-29T15:38:09;20.80;75.40
1129;DHT22;553;51.038;7.216;2023-05-29T15:40:39;20.90;75.10
1129;DHT22;553;51.038;7.216;2023-05-29T15:43:07;20.80;75.60
1129;DHT22;553;51.038;7.216;2023-05-29T15:45:33;20.70;75.30
1129;DHT22;553;51.038;7.216;2023-05-29T15:48:00;20.70;76.90
1129;DHT22;553;51.038;7.216;2023-05-29T15:50:27;20.70;76.40
1129;DHT22;553;51.038;7.216;2023-05-29T15:52:54;20.80;76.90
1129;DHT22;553;51.038;7.216;2023-05-29T15:55:23;20.90;76.10
1129;DHT22;553;51.038;7.216;2023-05-29T15:57:50;20.80;74.70
1129;DHT22;553;51.038;7.216;2023-05-29T16:00:17;20.50;76.00
1129;DHT22;553;51.038;7.216;2023-05-29T16:02:44;20.70;76.40
1129;DHT22;553;51.038;7.216;2023-05-29T16:05:11;20.80;75.60
1129;DHT22;553;51.038;7.216;2023-05-29T16:07:38;20.70;75.30
1129;DHT22;553;51.038;7.216;2023-05-29T16:10:06;20.50;76.10
1129;DHT22;553;51.038;7.216;2023-05-29T16:12:33;20.50;77.10
1129;DHT22;553;51.038;7.216;2023-05-29T16:15:00;20.60;76.40
1129;DHT22;553;51.038;7.216;2023-05-29T16:17:27;20.80;76.40
1129;DHT22;553;51.038;7.216;2023-05-29T16:19:54;20.60;76.10
1129;DHT22;553;51.038;7.216;2023-05-29T16:22:23;20.50;75.50
1129;DHT22;553;51.038;7.216;2023-05-29T16:25:07;20.40;76.40
1129;DHT22;553;51.038;7.216;2023-05-29T16:27:34;20.30;76.40
1129;DHT22;553;51.038;7.216;2023-05-29T16:30:02;20.20;76.10
1129;DHT22;553;51.038;7.216;2023-05-29T16:32:29;20.10;76.40
1129;DHT22;553;51.038;7.216;2023-05-29T16:34:56;20.10;76.70
1129;DHT22;553;51.038;7.216;2023-05-29T16:37:25;20.10;75.90
1129;DHT22;553;51.038;7.216;2023-05-29T16:39:52;20.10;76.60
1129;DHT22;553;51.038;7.216;2023-05-29T16:42:19;20.20;76.40
1129;DHT22;553;51.038;7.216;2023-05-29T16:44:46;20.30;76.50
1129;DHT22;553;51.038;7.216;2023-05-29T16:47:12;20.30;76.50
1129;DHT22;553;51.038;7.216;2023-05-29T16:49:39;20.30;76.40